Un réseau de détection de foudre en temps réel.
Régions/Pays:
Liste des stations pour "-" trié 0 par Rendement L
(Rendement L = Nombre de signaux utilisés dans la dernière heure pour le positionnement d'impacts à une distance jusque 5000 km)
StationVilleCommentairePaysStatutDernier signalSignauxRendement SRendement MRendement L
735Leipzig / LößnigGermanyRunning2017-05-25 02:5421030|0%0|0%1097|46%
946Sherman300mm x 7.5mm ferrite, AS3935United States / ConnecticutRunning2017-05-25 02:5467990|0%0|0%3079|45%
1188TorontoCanadaRunning2017-05-25 02:5454200|0%0|0%2446|45%
934Mauston250mm x 7.5mm ferriteUnited States / WisconsinRunning2017-05-25 02:5457850|0%0|0%2594|44%
283Lehesten / WetzsteinGermanyRunning2017-05-25 02:5421530|0%0|0%1029|44%
951ResitaSystem RED - Ferrite / Shielde...RomaniaRunning2017-05-25 02:5425210|0%9|72%1126|44%
1059Hatvan///ABSCAMHungaryRunning2017-05-25 02:5424520|0%180|44%1041|41%
1439Frankfort BH-3▲-250x7.5mm -- E-150x4mmUnited States / KentuckyRunning2017-05-25 02:5452020|0%209|83%2242|39%
607ChristchurchGreen - gain 43New ZealandRunning2017-05-25 02:533630|0%0|0%144|39%
1383South Sydney, NSWAustralia / New South WalesRunning2017-05-25 02:532700|0%0|0%107|39%
988near. PardubiceSystem RED - OK1MXCzech RepublicRunning2017-05-25 02:5428420|0%192|45%1127|39%
687Rheinau-MemprechtshofenGermanyRunning2017-05-25 02:5425360|0%1|88%1000|39%
608New BeithAustralia / QueenslandRunning2017-05-25 02:533400|0%0|0%133|39%
1537NeftenbachSwitzerlandRunning2017-05-25 02:5224550|0%194|30%960|39%
1027Praha 4 - HodkovičkyRED loop ant. 2m diameter, 8 w...Czech RepublicRunning2017-05-25 02:5431840|0%225|43%1254|38%
1418RegensburgSystem Red, loop-antennaGermanyRunning2017-05-25 02:5230990|0%176|34%1190|38%
1263Dutton Park, Brisbane300mm loops (x 44 turns)Australia / QueenslandRunning2017-05-25 02:532370|0%0|0%90|37%
616Jöhstadt OT SteinbachGermanyRunning2017-05-25 02:5420070|0%1|15%919|37%
1072Kirchheim b. Münchensystem REDGermanyRunning2017-05-25 02:5430570|0%423|35%1173|37%
759Hof bei SalzburgAustriaRunning2017-05-25 02:5421000|0%580|36%892|37%
836Castano Primo (MI) - CMLItalyRunning2017-05-25 02:5436530|0%1075|38%1391|37%
1576Groß SchweinbarthOE3UKW Sytem Blue, SkywarnAustriaRunning2017-05-25 02:5224370|0%189|47%903|37%
1139Graz - RagnitzSystem RED, ferrite rods, shie...AustriaRunning2017-05-25 02:5438020|0%1115|37%1466|36%
1093North Bethesda (Red)Occasional powerline interfere...United States / MarylandRunning2017-05-25 02:54100170|0%8|39%3689|36%
829Bisingen (RED) DL1SEWLoop 1200mm,SKS 120GermanyRunning2017-05-25 02:5420490|0%109|30%898|36%
689Frankfort RH-2∟-300x7.5mm -- E-350x2mmUnited States / KentuckyRunning2017-05-25 02:5452490|0%204|82%2045|36%
1047Oberau/WildschönauAustriaRunning2017-05-25 02:5435150|0%958|36%1296|36%
1311ZávodHungaryRunning2017-05-25 02:5440270|0%344|40%1528|36%
1253AucklandSharing Boltek antennaNew ZealandRunning2017-05-25 02:533970|0%0|0%144|36%
992HeillecourtREDFranceRunning2017-05-25 02:5420550|0%0|0%877|36%
1693AlbanyBlue: 3H-Orthogonal, E-WireUnited States / New YorkRunning2017-05-25 02:5471750|0%0|0%2562|35%
1227Frydrychowice GórkaRED, Loop 80cm, shield, indoorPolandRunning2017-05-25 02:5427830|0%0|0%1015|35%
1006BlausteinE-field : 1000mm Ø0,05mm in c...GermanyRunning2017-05-25 02:5320210|0%135|30%866|35%
786Ittigen HB9CJQProjektgruppe HB9F, BernSwitzerlandRunning2017-05-25 02:5427250|0%44|29%957|35%
922Tyczyn / Hermanowashielded 40cm loop, 45 turnsPolandRunning2017-05-25 02:5429840|0%0|0%1056|34%
1177Athelstane300mm x 7.5mm ferrite, E-Field...United States / WisconsinRunning2017-05-25 02:5447030|0%0|0%2167|34%
1073Méribel-les-AlluesSystemRED, indoor, 1 loop ante...FranceRunning2017-05-25 02:5430540|0%100|36%1107|34%
1785Dorfen (RED)2x SKS200/15N /w E-Field & AS3...GermanyRunning2017-05-25 02:5320290|0%269|31%868|34%
1152SittardPA4EME : Syst. RED at 24 m AGLNetherlandsRunning2017-05-25 02:5430030|0%0|0%1048|34%
952Poznań / PlewiskaMaciej SP3GTPolandRunning2017-05-25 02:5427400|0%0|0%964|34%
1539MacombBlue Unshielded 9.5 X 210mm Ma...United States / IllinoisRunning2017-05-25 02:5468620|0%0|0%2334|34%
1686Rheinauen [RLP]System Blue Testbetrieb - H & ...GermanyRunning2017-05-25 02:5328950|0%0|0%978|33%
1108Ringgenberg am B'seeSwitzerlandRunning2017-05-25 02:5427400|0%234|28%925|33%
546BassersdorfGreen, frame ant. shieldedSwitzerlandRunning2017-05-25 02:5424850|0%201|29%849|33%
730Steinbrunn SeeAustriaRunning2017-05-25 02:5447740|0%297|34%1602|33%
1458BrielleBLUE 2 x 200mm ferrite rodsNetherlandsRunning2017-05-25 02:5228040|0%0|0%922|32%
982Groton20in crossed loop, AS3935United States / ConnecticutRunning2017-05-25 02:5465350|0%1|82%2145|32%
1650Oberösterreich - WilheringRev. 8.2 BLUE / 4 Filter 100kH...AustriaRunning2017-05-25 02:5320510|0%274|37%813|32%
1271OssRED, 200mm ferrite, E under co...NetherlandsRunning2017-05-25 02:5432810|0%0|0%1069|32%
1327Breitenbach am InnAustriaRunning2017-05-25 02:5444400|0%1134|33%1475|32%
1759Running2017-05-25 02:5317490|0%683|32%939|32%
304Linnich - Gevenich - 3GermanyRunning2017-05-25 02:5428600|0%0|0%914|31%
140PerugiaItalyRunning2017-05-25 02:53393334|44%1233|33%1253|31%
1313OldHungaryRunning2017-05-25 02:5418860|0%593|33%818|30%
688EinbeckREDGermanyRunning2017-05-25 02:5418560|0%0|0%835|30%
680BrusselsBelgiumRunning2017-05-25 02:5418600|0%0|0%819|30%
833UitgeestRED-10.3/12.3c, loop antennaNetherlandsRunning2017-05-25 02:5423480|0%0|0%728|30%
944Hamburg-NeuenfeldeSystem RED - Coax loopGermanyRunning2017-05-25 02:5417950|0%0|0%842|30%
894Hemže, near Choceň (RED)RED system, ferrite rodCzech RepublicRunning2017-05-25 02:5447260|0%190|33%1443|29%
604Kerikerilooking for a new home :)New ZealandRunning2017-05-25 02:535720|0%0|0%168|29%
1590Worcester3 x 200mm ferrite plus 140mm e...United States / MassachusettsRunning2017-05-25 02:54110610|0%0|0%3242|29%
923Rzeszow-MilocinRED, H-900 loop shield, E-330PolandRunning2017-05-25 02:5416270|0%0|0%874|29%
391ArezzoShielded ferrite rods, 20cm - ...ItalyRunning2017-05-25 02:5443342|25%1257|30%1280|29%
1363Brisbane Nth (2)Australia / QueenslandRunning2017-05-25 02:535210|0%0|0%152|29%
7665734 Reinach AGHE9FAN, Loop 30cm, Ferrit 20cmSwitzerlandRunning2017-05-25 02:5434430|0%250|29%1005|28%
912Maršov u ÚpiceRED - H+E-field + AS3935Czech RepublicRunning2017-05-25 02:5436660|0%2|20%1076|28%
824SieghartskirchenOE3MNS (wetter-kreuth.at)AustriaRunning2017-05-25 02:5418230|0%206|46%776|28%
618LübeckRED 10.3/12.3, 2*SKS200/10NGermanyRunning2017-05-25 02:5432040|0%0|0%895|28%
43Bremen-VegesackGermanyRunning2017-05-25 02:5323270|0%0|0%679|28%
779Rheurdt-SchaephuysenGermanyRunning2017-05-25 02:5417340|0%0|0%813|28%
1128Naples-1Ferrite Rod AntennasUnited States / New YorkRunning2017-05-25 02:54107740|0%0|0%3053|28%
590Fensmark,HolmegaardRED with = 15 cm E-Field & 6...DenmarkRunning2017-05-25 02:5422930|0%0|0%648|28%
1221-Running2017-05-25 02:5422290|0%5|62%626|27%
821Sedrun,Tujetsch, GRSwitzerlandRunning2017-05-25 02:5418800|0%391|25%718|27%
1671Cham/Zug (Sys Blue)Stations 1671 (+1355)SwitzerlandRunning2017-05-25 02:5324310|0%214|27%669|27%
1360BARWELLUnited KingdomRunning2017-05-25 02:5421940|0%0|0%627|27%
1401ZicavoFranceRunning2017-05-25 02:5216390|0%635|31%849|27%
734Genk (RED)BelgiumRunning2017-05-25 02:5424410|0%0|0%667|27%
760MessenSwitzerlandRunning2017-05-25 02:5432420|0%30|22%880|27%
18Island of SyrosGreeceRunning2017-05-25 02:5334200|0%0|0%932|26%
706Rogers City-REDRED w/1m loops, E-Field & AS39...United States / MichiganRunning2017-05-25 02:5470600|0%0|0%1887|26%
1052HoldorfH & E-Field System RedGermanyRunning2017-05-25 02:5424790|0%0|0%669|26%
1259Monte Penice (PV) - CML+IW2MILItalyRunning2017-05-25 02:5448260|0%1044|27%1315|26%
878AldershotRED, Dual 1m 12turn shielded, ...United KingdomRunning2017-05-25 02:5426710|0%0|0%713|26%
1775Running2017-05-25 02:5314820|0%738|26%903|26%
931SchorndorfSystem REDGermanyRunning2017-05-25 02:5421590|0%107|31%607|26%
785Cuxhaven-OxstedtSystem RED with shielded ferri...GermanyRunning2017-05-25 02:5436420|0%0|0%967|26%
1334Baye 51System RedFranceRunning2017-05-25 02:5418660|0%0|0%699|26%
1814VeszprémHungaryRunning2017-05-25 02:5358230|0%276|28%1496|25%
1526KraichtalGermanyRunning2017-05-25 02:5221170|0%0|0%616|25%
1399Brisbane Nth 1replaced orig due to STM32 fai...Australia / New South WalesRunning2017-05-25 02:535260|0%0|0%134|25%
711VaassenRED, H-field, copper shielded ...NetherlandsRunning2017-05-25 02:5449260|0%0|0%1262|25%
1542Asheville300x7.5 ferrites, shielded, x,...United States / North CarolinaRunning2017-05-25 02:54111430|0%91|41%2829|25%
957FolkestoneSystem RED - replaces station ...United KingdomRunning2017-05-25 02:5438100|0%0|0%953|25%
866Bad Dürrenberg (RED)GermanyRunning2017-05-25 02:5418250|0%0|0%694|25%
1081VinonTEST ANTENNE CADRE + ANTENNE F...FranceRunning2017-05-25 02:5440230|0%0|0%1023|24%
1359Geisenhausen - DL1RFH-2∟SKS200/10; E-0.5m Ø6mmGermanyRunning2017-05-25 02:5444880|0%333|25%1144|24%
1428KercaszomorHungaryRunning2017-05-25 02:5229170|0%563|25%724|24%
524SalzgitterGermanyRunning2017-05-25 02:5418670|0%0|0%665|24%
1079Imlay City300mm shielded ferriteUnited States / MichiganRunning2017-05-25 02:54184120|0%167|20%4515|24%
Un réseau mondial, communautaire et collaboratif de détection de foudre en temps réel. © 2003-2017 Blitzortung.org et ses participants
Sélectionnez votre langue
češtinadanskdeutschελληνικάenglishespañolsuomeksifrançaismagyaritaliano日本語latviskinederlandsenorskpolskiрусскийсрпскиsvenskatürkукраїнський
Si votre langue n'est pas disponible et que vous souhaitez l'ajouter, envoyez-nous un e-mail à info ☺ blitzortung.org